createdAt,value
2022-10-02T00:01:32.712Z,89.08
2022-10-02T00:04:02.054Z,89.28
2022-10-02T00:06:37.942Z,89.65
2022-10-02T00:09:07.952Z,89.63
2022-10-02T00:11:43.435Z,89.78
2022-10-02T00:14:18.591Z,89.46
2022-10-02T00:16:48.372Z,89.89
2022-10-02T00:19:18.666Z,89.84
2022-10-02T00:22:05.753Z,90.43
2022-10-02T00:24:39.180Z,90.34
2022-10-02T00:27:15.719Z,90.02
2022-10-02T00:29:49.971Z,90.53
2022-10-02T00:32:25.566Z,90.57
2022-10-02T00:35:16.571Z,91.05
2022-10-02T00:37:51.002Z,90.66
2022-10-02T00:40:36.560Z,90.90
2022-10-02T00:43:11.620Z,90.92
2022-10-02T00:46:05.936Z,91.28
2022-10-02T00:48:51.092Z,91.45
2022-10-02T00:51:32.090Z,91.14
2022-10-02T00:54:09.140Z,91.36
2022-10-02T00:56:43.579Z,91.84
2022-10-02T00:59:33.582Z,91.98
2022-10-02T01:02:05.963Z,91.80
2022-10-02T01:04:36.603Z,91.89
2022-10-02T01:07:06.574Z,92.27
2022-10-02T01:09:37.472Z,92.02
2022-10-02T01:12:06.294Z,91.92
2022-10-02T01:14:35.545Z,92.01
2022-10-02T01:17:04.772Z,91.86
2022-10-02T01:19:37.611Z,92.03
2022-10-02T01:22:11.473Z,92.52
2022-10-02T01:24:44.375Z,92.49
2022-10-02T01:27:12.549Z,92.48
2022-10-02T01:29:41.293Z,92.39
2022-10-02T01:32:10.831Z,92.54
2022-10-02T01:34:39.433Z,92.24
2022-10-02T01:37:07.733Z,92.21
2022-10-02T01:39:35.841Z,92.33
2022-10-02T01:42:04.668Z,92.05
2022-10-02T01:44:33.210Z,92.08
2022-10-02T01:47:08.603Z,92.13
2022-10-02T01:49:50.750Z,91.89
2022-10-02T01:52:34.484Z,92.20
2022-10-02T01:55:25.024Z,92.36
2022-10-02T01:58:03.972Z,92.55
2022-10-02T02:00:43.452Z,92.12
2022-10-02T02:03:18.119Z,92.64
2022-10-02T02:05:50.231Z,92.20
2022-10-02T02:08:26.119Z,92.11
2022-10-02T02:11:04.672Z,92.37
2022-10-02T02:13:35.972Z,92.05
2022-10-02T02:16:08.542Z,91.73
2022-10-02T02:18:42.983Z,91.86
2022-10-02T02:21:14.118Z,91.85
2022-10-02T02:23:43.928Z,91.77
2022-10-02T02:26:13.186Z,91.97
2022-10-02T02:28:44.815Z,91.88
2022-10-02T02:31:16.018Z,91.87
2022-10-02T02:33:47.950Z,91.88
2022-10-02T02:36:18.749Z,91.84
2022-10-02T02:38:50.757Z,91.79
2022-10-02T02:41:24.076Z,91.84
2022-10-02T02:43:57.928Z,91.83
2022-10-02T02:46:58.696Z,91.82
2022-10-02T02:49:29.822Z,91.74
2022-10-02T02:52:01.030Z,91.53
2022-10-02T02:54:33.508Z,91.74
2022-10-02T02:57:05.001Z,91.66
2022-10-02T02:59:35.704Z,91.12
2022-10-02T03:02:04.750Z,91.17
2022-10-02T03:04:34.052Z,91.08
2022-10-02T03:07:04.620Z,91.01
2022-10-02T03:09:33.675Z,91.07
2022-10-02T03:12:12.859Z,90.97
2022-10-02T03:15:27.277Z,90.44
2022-10-02T03:18:16.533Z,90.71
2022-10-02T03:20:49.727Z,91.05
2022-10-02T03:23:25.459Z,91.12
2022-10-02T03:25:59.937Z,91.27
2022-10-02T03:28:54.296Z,91.54
2022-10-02T03:31:21.529Z,91.54
2022-10-02T03:33:50.822Z,91.37
2022-10-02T03:36:20.242Z,91.51
2022-10-02T03:39:00.810Z,91.29
2022-10-02T03:41:37.566Z,91.56
2022-10-02T03:44:06.288Z,91.51
2022-10-02T03:46:34.936Z,91.44
2022-10-02T03:49:03.688Z,91.38
2022-10-02T03:51:32.050Z,91.39
2022-10-02T03:54:00.801Z,91.56
2022-10-02T03:56:36.810Z,91.54
2022-10-02T03:59:12.375Z,91.76
2022-10-02T04:01:48.923Z,91.85
2022-10-02T04:04:23.001Z,92.16
2022-10-02T04:06:54.206Z,92.02
2022-10-02T04:09:27.011Z,91.91
2022-10-02T04:11:58.735Z,92.11
2022-10-02T04:14:33.039Z,92.41
2022-10-02T04:17:07.031Z,92.30
2022-10-02T04:19:35.962Z,92.45
2022-10-02T04:22:11.747Z,92.51
2022-10-02T04:24:46.540Z,92.65
2022-10-02T04:27:18.663Z,92.89
2022-10-02T04:29:51.493Z,92.87
2022-10-02T04:32:25.672Z,92.64
2022-10-02T04:34:54.570Z,92.88
2022-10-02T04:37:36.526Z,93.13
2022-10-02T04:40:17.481Z,93.24
2022-10-02T04:42:55.892Z,93.36
2022-10-02T04:45:35.563Z,93.45
2022-10-02T04:48:27.903Z,93.46
2022-10-02T04:51:06.551Z,93.87
2022-10-02T04:53:59.209Z,94.07
2022-10-02T04:56:44.673Z,94.28
2022-10-02T04:59:26.233Z,93.95
2022-10-02T05:02:06.985Z,93.99
2022-10-02T05:04:53.935Z,94.45
2022-10-02T05:07:36.327Z,93.81
2022-10-02T05:10:32.039Z,94.64
2022-10-02T05:13:08.688Z,94.27
2022-10-02T05:15:46.890Z,94.27
2022-10-02T05:18:29.201Z,94.55
2022-10-02T05:21:10.783Z,94.49
2022-10-02T05:23:52.878Z,94.08
2022-10-02T05:26:42.369Z,94.31
2022-10-02T05:29:20.500Z,93.89
2022-10-02T05:31:59.019Z,93.92
2022-10-02T05:34:39.969Z,94.25
2022-10-02T05:37:28.041Z,93.94
2022-10-02T05:40:01.893Z,94.10
2022-10-02T05:42:35.104Z,94.23
2022-10-02T05:45:11.940Z,94.23
2022-10-02T05:47:44.830Z,93.75
2022-10-02T05:50:17.680Z,94.49
2022-10-02T05:52:53.994Z,94.49
2022-10-02T05:55:27.063Z,94.20
2022-10-02T05:58:01.054Z,94.12
2022-10-02T06:00:35.859Z,93.87
2022-10-02T06:03:13.324Z,94.02
2022-10-02T06:05:49.768Z,94.12
2022-10-02T06:08:23.196Z,93.97
2022-10-02T06:10:55.590Z,94.17
2022-10-02T06:13:27.364Z,94.19
2022-10-02T06:16:00.645Z,94.58
2022-10-02T06:18:32.964Z,94.36
2022-10-02T06:21:05.360Z,94.74
2022-10-02T06:23:37.404Z,94.71
2022-10-02T06:26:11.263Z,94.90
2022-10-02T06:28:41.856Z,94.69
2022-10-02T06:31:16.313Z,94.55
2022-10-02T06:33:45.711Z,94.60
2022-10-02T06:36:55.277Z,94.50
2022-10-02T06:39:35.094Z,94.74
2022-10-02T06:42:12.778Z,94.84
2022-10-02T06:44:48.352Z,94.70
2022-10-02T06:47:26.008Z,94.99
2022-10-02T06:50:10.116Z,95.02
2022-10-02T06:52:46.007Z,94.99
2022-10-02T06:55:32.855Z,95.05
2022-10-02T06:58:30.355Z,95.01
2022-10-02T07:01:05.581Z,94.58
2022-10-02T07:03:49.523Z,94.75
2022-10-02T07:06:26.019Z,94.78
2022-10-02T07:09:12.485Z,94.54
2022-10-02T07:11:47.442Z,94.17
2022-10-02T07:14:29.722Z,94.29
2022-10-02T07:17:06.875Z,94.10
2022-10-02T07:19:49.963Z,94.16
2022-10-02T07:22:44.963Z,94.00
2022-10-02T07:25:32.449Z,93.81
2022-10-02T07:28:10.138Z,93.65
2022-10-02T07:30:45.319Z,93.51
2022-10-02T07:33:20.678Z,93.31
2022-10-02T07:35:55.842Z,93.06
2022-10-02T07:38:47.505Z,93.46
2022-10-02T07:41:40.497Z,93.31
2022-10-02T07:44:19.168Z,93.32
2022-10-02T07:46:54.441Z,92.91
2022-10-02T07:49:36.127Z,92.50
2022-10-02T07:52:16.687Z,92.51
2022-10-02T07:55:00.833Z,92.05
2022-10-02T07:57:34.839Z,91.61
2022-10-02T08:00:06.404Z,91.08
2022-10-02T08:02:39.365Z,90.06
2022-10-02T08:05:17.800Z,90.02
2022-10-02T08:07:50.178Z,89.45
2022-10-02T08:10:22.964Z,88.51
2022-10-02T08:12:56.081Z,89.03
2022-10-02T08:15:25.863Z,88.91
2022-10-02T08:18:10.776Z,88.03
2022-10-02T08:20:47.097Z,87.69
2022-10-02T08:23:21.856Z,88.41
2022-10-02T08:25:55.869Z,87.80
2022-10-02T08:28:24.798Z,87.88
2022-10-02T08:30:54.026Z,87.29
2022-10-02T08:33:24.010Z,86.63
2022-10-02T08:36:05.661Z,86.60
2022-10-02T08:38:41.424Z,86.94
2022-10-02T08:41:37.139Z,86.63
2022-10-02T08:44:49.474Z,86.94
2022-10-02T08:47:55.195Z,87.06
2022-10-02T08:50:43.135Z,86.10
2022-10-02T08:53:40.734Z,84.85
2022-10-02T08:56:25.449Z,84.50
2022-10-02T08:59:28.982Z,85.03
2022-10-02T09:02:27.268Z,85.21
2022-10-02T09:05:18.795Z,84.01
2022-10-02T09:08:42.167Z,83.44
2022-10-02T09:11:51.811Z,82.46
2022-10-02T09:14:44.058Z,82.45
2022-10-02T09:17:27.168Z,82.35
2022-10-02T09:20:12.825Z,82.10
2022-10-02T09:23:20.569Z,82.32
2022-10-02T09:25:56.828Z,80.81
2022-10-02T09:29:09.240Z,80.69
2022-10-02T09:32:15.993Z,78.47
2022-10-02T09:35:07.643Z,76.82
2022-10-02T09:38:13.667Z,77.42
2022-10-02T09:41:16.165Z,77.19
2022-10-02T09:44:05.865Z,77.42
2022-10-02T09:46:57.714Z,77.57
2022-10-02T09:49:55.791Z,77.08
2022-10-02T09:53:07.327Z,76.46
2022-10-02T09:56:20.348Z,76.81
2022-10-02T09:59:17.014Z,77.09
2022-10-02T10:02:07.252Z,76.97
2022-10-02T10:05:05.948Z,75.47
2022-10-02T10:08:07.474Z,74.06
2022-10-02T10:11:00.649Z,73.13
2022-10-02T10:14:17.749Z,71.56
2022-10-02T10:17:21.996Z,72.64
2022-10-02T10:20:11.962Z,72.19
2022-10-02T10:23:03.031Z,72.20
2022-10-02T10:25:51.097Z,70.39
2022-10-02T10:28:55.729Z,69.37
2022-10-02T10:32:02.568Z,69.34
2022-10-02T10:34:45.635Z,70.08
2022-10-02T10:37:42.063Z,69.97
2022-10-02T10:40:39.111Z,70.13
2022-10-02T10:43:50.659Z,67.99
2022-10-02T10:46:59.563Z,68.55
2022-10-02T10:50:02.373Z,68.39
2022-10-02T10:52:47.281Z,65.09
2022-10-02T10:55:35.070Z,64.52
2022-10-02T10:58:21.120Z,63.33
2022-10-02T11:01:10.405Z,64.43
2022-10-02T11:04:08.124Z,65.09
2022-10-02T11:06:58.030Z,64.57
2022-10-02T11:10:15.506Z,65.94
2022-10-02T11:13:01.936Z,70.12
2022-10-02T11:16:06.080Z,72.28
2022-10-02T11:19:00.221Z,75.25
2022-10-02T11:22:11.153Z,76.48
2022-10-02T11:25:07.382Z,77.31
2022-10-02T11:28:06.146Z,78.25
2022-10-02T11:30:42.987Z,78.31
2022-10-02T11:33:34.648Z,78.82
2022-10-02T11:36:42.829Z,79.40
2022-10-02T11:39:24.070Z,79.32
2022-10-02T11:42:12.364Z,79.12
2022-10-02T11:44:58.247Z,78.63
2022-10-02T11:48:08.887Z,78.61
2022-10-02T11:51:10.757Z,77.65
2022-10-02T11:54:03.816Z,77.37
2022-10-02T11:57:00.708Z,76.97
2022-10-02T11:59:40.814Z,77.23
2022-10-02T12:02:16.621Z,76.52
2022-10-02T12:04:54.819Z,76.47
2022-10-02T12:07:32.104Z,75.81
2022-10-02T12:10:32.693Z,75.69
2022-10-02T12:13:25.443Z,75.17
2022-10-02T12:16:02.700Z,74.21
2022-10-02T12:18:41.908Z,74.37
2022-10-02T12:21:39.586Z,73.26
2022-10-02T12:24:36.974Z,71.57
2022-10-02T12:27:13.683Z,70.58
2022-10-02T12:30:00.641Z,72.30
2022-10-02T12:32:52.003Z,72.79
2022-10-02T12:35:46.550Z,73.61
2022-10-02T12:38:33.752Z,74.30
2022-10-02T12:41:15.359Z,75.10
2022-10-02T12:44:21.703Z,75.38
2022-10-02T12:47:25.993Z,75.55
2022-10-02T12:50:07.202Z,75.29
2022-10-02T12:53:03.819Z,75.20
2022-10-02T12:56:02.375Z,74.82
2022-10-02T12:58:42.588Z,74.87
2022-10-02T13:01:34.814Z,74.77
2022-10-02T13:04:40.915Z,74.21
2022-10-02T13:07:40.831Z,73.43
2022-10-02T13:10:22.522Z,73.90
2022-10-02T13:13:06.718Z,74.08
2022-10-02T13:15:43.617Z,73.88
2022-10-02T13:18:46.042Z,73.39
2022-10-02T13:21:25.005Z,73.25
2022-10-02T13:24:13.181Z,73.26
2022-10-02T13:26:53.174Z,73.36
2022-10-02T13:29:35.148Z,73.28
2022-10-02T13:32:15.987Z,73.08
2022-10-02T13:34:57.535Z,72.94
2022-10-02T13:37:36.351Z,73.62
2022-10-02T13:40:28.943Z,73.73
2022-10-02T13:43:26.158Z,73.78
2022-10-02T13:46:06.182Z,73.97
2022-10-02T13:48:55.496Z,74.47
2022-10-02T13:51:32.185Z,74.71
2022-10-02T13:54:13.679Z,74.98
2022-10-02T13:57:02.451Z,75.12
2022-10-02T13:59:48.237Z,75.14
2022-10-02T14:02:27.618Z,75.11
2022-10-02T14:05:01.619Z,74.78
2022-10-02T14:07:55.903Z,74.35
2022-10-02T14:11:22.411Z,74.18
2022-10-02T14:14:09.057Z,74.25
2022-10-02T14:16:52.224Z,74.14
2022-10-02T14:19:34.961Z,73.21
2022-10-02T14:22:15.532Z,73.34
2022-10-02T14:25:04.134Z,73.08
2022-10-02T14:28:19.989Z,73.04
2022-10-02T14:31:10.314Z,73.45
2022-10-02T14:33:55.907Z,73.61
2022-10-02T14:36:32.115Z,73.84
2022-10-02T14:39:08.686Z,73.57
2022-10-02T14:41:58.333Z,72.49
2022-10-02T14:44:56.469Z,71.41
2022-10-02T14:47:42.617Z,70.76
2022-10-02T14:50:41.399Z,71.07
2022-10-02T14:54:00.229Z,71.24
2022-10-02T14:56:52.332Z,69.84
2022-10-02T14:59:37.155Z,70.56
2022-10-02T15:02:20.677Z,70.62
2022-10-02T15:04:53.597Z,70.53
2022-10-02T15:07:23.547Z,70.15
2022-10-02T15:10:07.033Z,70.37
2022-10-02T15:12:46.898Z,69.92
2022-10-02T15:15:18.894Z,69.66
2022-10-02T15:17:59.626Z,69.58
2022-10-02T15:20:37.291Z,69.62
2022-10-02T15:23:12.289Z,69.87
2022-10-02T15:26:02.629Z,70.12
2022-10-02T15:28:42.631Z,70.15
2022-10-02T15:31:19.786Z,70.41
2022-10-02T15:33:57.602Z,71.00
2022-10-02T15:36:44.505Z,71.44
2022-10-02T15:39:59.261Z,71.82
2022-10-02T15:42:48.031Z,72.50
2022-10-02T15:45:38.998Z,72.63
2022-10-02T15:49:01.474Z,72.79
2022-10-02T15:51:55.158Z,73.23
2022-10-02T15:54:35.346Z,73.28
2022-10-02T15:57:24.013Z,73.49
2022-10-02T16:00:08.395Z,73.69
2022-10-02T16:02:49.116Z,74.00
2022-10-02T16:05:24.334Z,74.23
2022-10-02T16:08:05.090Z,74.35
2022-10-02T16:10:40.944Z,74.41
2022-10-02T16:13:31.411Z,74.73
2022-10-02T16:16:06.275Z,74.85
2022-10-02T16:18:50.931Z,75.42
2022-10-02T16:21:33.390Z,75.58
2022-10-02T16:24:23.493Z,75.62
2022-10-02T16:27:13.275Z,75.71
2022-10-02T16:29:48.630Z,75.59
2022-10-02T16:32:25.000Z,75.81
2022-10-02T16:35:16.921Z,75.73
2022-10-02T16:37:49.136Z,76.07
2022-10-02T16:40:26.315Z,76.23
2022-10-02T16:43:23.242Z,76.12
2022-10-02T16:46:02.126Z,76.07
2022-10-02T16:48:41.898Z,76.35
2022-10-02T16:51:15.610Z,76.33
2022-10-02T16:53:50.257Z,76.48
2022-10-02T16:56:23.713Z,76.29
2022-10-02T16:59:01.397Z,76.38
2022-10-02T17:01:43.370Z,76.38
2022-10-02T17:04:39.953Z,76.22
2022-10-02T17:07:26.716Z,76.30
2022-10-02T17:10:01.805Z,76.42
2022-10-02T17:12:43.243Z,76.41
2022-10-02T17:15:26.234Z,76.49
2022-10-02T17:18:08.155Z,76.50
2022-10-02T17:20:51.786Z,76.87
2022-10-02T17:23:35.600Z,76.90
2022-10-02T17:26:27.772Z,77.32
2022-10-02T17:29:11.284Z,77.20
2022-10-02T17:31:52.484Z,77.48
2022-10-02T17:34:26.172Z,77.55
2022-10-02T17:37:49.928Z,77.98
2022-10-02T17:40:22.645Z,78.22
2022-10-02T17:42:57.330Z,78.39
2022-10-02T17:45:37.775Z,78.54
2022-10-02T17:48:26.579Z,79.11
2022-10-02T17:52:00.002Z,79.09
2022-10-02T17:54:45.757Z,79.27
2022-10-02T17:57:24.483Z,79.49
2022-10-02T18:00:09.011Z,79.50
2022-10-02T18:03:17.640Z,79.84
2022-10-02T18:05:51.558Z,79.98
2022-10-02T18:08:30.724Z,80.28
2022-10-02T18:11:06.056Z,80.29
2022-10-02T18:13:45.695Z,80.80
2022-10-02T18:16:24.477Z,80.82
2022-10-02T18:19:16.448Z,80.61
2022-10-02T18:21:54.183Z,80.75
2022-10-02T18:24:48.948Z,80.69
2022-10-02T18:27:28.063Z,81.12
2022-10-02T18:30:08.238Z,80.99
2022-10-02T18:32:59.943Z,81.19
2022-10-02T18:35:32.846Z,81.45
2022-10-02T18:38:13.096Z,81.63
2022-10-02T18:40:56.265Z,81.46
2022-10-02T18:43:47.043Z,81.83
2022-10-02T18:46:25.347Z,81.91
2022-10-02T18:49:07.354Z,82.35
2022-10-02T18:51:57.951Z,82.57
2022-10-02T18:54:32.199Z,82.36
2022-10-02T18:57:12.380Z,82.14
2022-10-02T18:59:52.535Z,82.47
2022-10-02T19:02:31.586Z,82.47
2022-10-02T19:05:16.581Z,82.17
2022-10-02T19:07:49.677Z,82.12
2022-10-02T19:10:25.727Z,82.02
2022-10-02T19:12:57.600Z,82.01
2022-10-02T19:15:28.672Z,82.02
2022-10-02T19:18:02.072Z,82.07
2022-10-02T19:20:51.310Z,82.03
2022-10-02T19:23:26.359Z,81.89
2022-10-02T19:25:56.100Z,81.96
2022-10-02T19:28:27.125Z,81.59
2022-10-02T19:30:58.861Z,81.94
2022-10-02T19:33:34.550Z,81.57
2022-10-02T19:36:05.245Z,81.56
2022-10-02T19:38:36.101Z,81.56
2022-10-02T19:41:10.012Z,81.36
2022-10-02T19:43:47.984Z,80.47
2022-10-02T19:46:19.653Z,80.22
2022-10-02T19:48:55.728Z,79.86
2022-10-02T19:51:25.428Z,79.35
2022-10-02T19:53:58.942Z,79.02
2022-10-02T19:56:31.745Z,79.50
2022-10-02T19:59:05.575Z,79.57
2022-10-02T20:01:42.485Z,79.97
2022-10-02T20:04:16.626Z,80.48
2022-10-02T20:06:52.356Z,80.38
2022-10-02T20:09:25.049Z,80.90
2022-10-02T20:11:57.618Z,81.51
2022-10-02T20:14:30.642Z,82.08
2022-10-02T20:17:12.074Z,82.49
2022-10-02T20:19:45.322Z,82.87
2022-10-02T20:22:22.394Z,83.27
2022-10-02T20:24:56.197Z,83.84
2022-10-02T20:27:30.738Z,83.37
2022-10-02T20:30:02.814Z,83.20
2022-10-02T20:32:34.962Z,84.33
2022-10-02T20:35:11.445Z,84.38
2022-10-02T20:37:40.813Z,84.51
2022-10-02T20:40:14.292Z,85.01
2022-10-02T20:42:47.013Z,84.79
2022-10-02T20:45:16.007Z,85.28
2022-10-02T20:48:21.556Z,85.18
2022-10-02T20:50:56.557Z,85.44
2022-10-02T20:53:52.089Z,85.35
2022-10-02T20:56:34.126Z,85.22
2022-10-02T20:59:22.522Z,85.33
2022-10-02T21:01:58.959Z,86.17
2022-10-02T21:04:44.081Z,86.59
2022-10-02T21:07:52.731Z,86.54
2022-10-02T21:10:53.429Z,86.96
2022-10-02T21:13:42.842Z,86.68
2022-10-02T21:16:49.620Z,87.27
2022-10-02T21:19:51.748Z,87.23
2022-10-02T21:22:49.853Z,87.53
2022-10-02T21:25:34.786Z,87.55
2022-10-02T21:28:55.193Z,87.57
2022-10-02T21:31:33.620Z,87.53
2022-10-02T21:34:13.465Z,87.01
2022-10-02T21:36:48.288Z,87.32
2022-10-02T21:39:59.995Z,87.31
2022-10-02T21:42:51.851Z,87.19
2022-10-02T21:46:00.059Z,87.69
2022-10-02T21:49:18.993Z,87.79
2022-10-02T21:52:12.659Z,87.90
2022-10-02T21:55:18.048Z,87.88
2022-10-02T21:58:14.751Z,87.85
2022-10-02T22:00:59.290Z,88.41
2022-10-02T22:03:46.959Z,88.13
2022-10-02T22:06:36.125Z,88.42
2022-10-02T22:09:19.030Z,88.83
2022-10-02T22:11:57.956Z,88.72
2022-10-02T22:14:35.863Z,88.78
2022-10-02T22:17:13.794Z,88.72
2022-10-02T22:20:11.971Z,88.77
2022-10-02T22:22:54.975Z,88.77
2022-10-02T22:25:36.358Z,88.86
2022-10-02T22:28:18.683Z,89.32
2022-10-02T22:31:18.260Z,89.67
2022-10-02T22:33:54.988Z,90.18
2022-10-02T22:36:38.007Z,89.96
2022-10-02T22:39:12.308Z,90.15
2022-10-02T22:41:45.682Z,90.26
2022-10-02T22:44:21.704Z,89.90
2022-10-02T22:46:52.791Z,89.92
2022-10-02T22:49:27.701Z,90.26
2022-10-02T22:52:01.012Z,90.27
2022-10-02T22:54:34.903Z,89.81
2022-10-02T22:57:14.054Z,89.71
2022-10-02T22:59:45.821Z,90.03
2022-10-02T23:02:22.291Z,90.40
2022-10-02T23:04:56.308Z,90.60
2022-10-02T23:07:26.309Z,90.66
2022-10-02T23:10:00.163Z,90.67
2022-10-02T23:12:38.240Z,90.90
2022-10-02T23:15:28.352Z,90.84
2022-10-02T23:17:58.979Z,90.88
2022-10-02T23:20:30.865Z,91.27
2022-10-02T23:23:03.274Z,91.00
2022-10-02T23:25:36.405Z,90.94
2022-10-02T23:28:08.607Z,90.89
2022-10-02T23:30:40.915Z,91.39
2022-10-02T23:33:22.040Z,91.39
2022-10-02T23:35:54.650Z,91.52
2022-10-02T23:38:28.253Z,91.44
2022-10-02T23:41:23.139Z,91.50
2022-10-02T23:44:02.993Z,91.19
2022-10-02T23:46:36.256Z,91.18
2022-10-02T23:49:05.293Z,90.92
2022-10-02T23:51:43.525Z,90.77
2022-10-02T23:54:20.859Z,91.04
2022-10-02T23:57:00.721Z,91.10
2022-10-02T23:59:41.907Z,90.96
